createdAt,value
2022-12-20T00:00:38.222Z,363.50
2022-12-20T00:03:06.862Z,379.02
2022-12-20T00:05:38.187Z,397.90
2022-12-20T00:08:07.355Z,376.92
2022-12-20T00:10:37.554Z,367.10
2022-12-20T00:13:06.754Z,351.05
2022-12-20T00:15:37.446Z,356.63
2022-12-20T00:18:06.306Z,345.70
2022-12-20T00:20:35.353Z,351.95
2022-12-20T00:23:04.190Z,348.98
2022-12-20T00:25:32.776Z,358.13
2022-12-20T00:28:03.197Z,367.50
2022-12-20T00:30:31.790Z,367.52
2022-12-20T00:33:01.954Z,355.98
2022-12-20T00:35:30.393Z,339.27
2022-12-20T00:37:58.912Z,332.80
2022-12-20T00:40:27.481Z,334.70
2022-12-20T00:42:56.042Z,330.38
2022-12-20T00:45:24.385Z,323.90
2022-12-20T00:47:52.910Z,355.35
2022-12-20T00:50:22.955Z,384.38
2022-12-20T00:52:51.557Z,348.15
2022-12-20T00:55:20.163Z,457.30
2022-12-20T00:57:48.974Z,341.35
2022-12-20T01:00:18.094Z,397.17
2022-12-20T01:02:46.858Z,421.17
2022-12-20T01:05:15.542Z,426.50
2022-12-20T01:07:45.455Z,403.02
2022-12-20T01:10:13.956Z,373.75
2022-12-20T01:12:42.458Z,368.23
2022-12-20T01:15:11.792Z,360.88
2022-12-20T01:17:40.475Z,396.08
2022-12-20T01:20:09.972Z,400.17
2022-12-20T01:22:43.865Z,376.83
2022-12-20T01:25:17.345Z,365.40
2022-12-20T01:27:46.350Z,390.88
2022-12-20T01:30:15.466Z,435.08
2022-12-20T01:32:44.076Z,364.45
2022-12-20T01:35:12.656Z,360.35
2022-12-20T01:37:41.156Z,380.35
2022-12-20T01:40:11.402Z,395.17
2022-12-20T01:42:41.357Z,346.92
2022-12-20T01:45:14.409Z,366.05
2022-12-20T01:47:43.062Z,355.35
2022-12-20T01:50:11.875Z,358.98
2022-12-20T01:52:43.919Z,348.45
2022-12-20T01:55:16.103Z,376.02
2022-12-20T01:57:49.410Z,380.98
2022-12-20T02:00:18.780Z,367.58
2022-12-20T02:02:49.239Z,363.15
2022-12-20T02:05:19.497Z,361.30
2022-12-20T02:07:50.005Z,372.85
2022-12-20T02:10:18.745Z,363.45
2022-12-20T02:12:49.535Z,376.30
2022-12-20T02:15:33.970Z,377.63
2022-12-20T02:18:15.083Z,371.95
2022-12-20T02:21:06.008Z,406.77
2022-12-20T02:24:06.232Z,383.05
2022-12-20T02:27:11.274Z,366.52
2022-12-20T02:30:04.010Z,343.25
2022-12-20T02:32:38.457Z,335.33
2022-12-20T02:35:08.655Z,391.33
2022-12-20T02:37:37.454Z,387.80
2022-12-20T02:40:06.894Z,449.23
2022-12-20T02:42:35.634Z,355.77
2022-12-20T02:45:15.899Z,377.95
2022-12-20T02:47:50.208Z,358.90
2022-12-20T02:50:25.002Z,347.70
2022-12-20T02:52:54.033Z,368.95
2022-12-20T02:55:25.270Z,366.98
2022-12-20T02:58:00.342Z,369.48
2022-12-20T03:00:31.638Z,368.48
2022-12-20T03:03:19.105Z,391.10
2022-12-20T03:05:49.076Z,381.42
2022-12-20T03:08:18.029Z,373.58
2022-12-20T03:10:46.626Z,377.38
2022-12-20T03:13:15.346Z,370.40
2022-12-20T03:15:43.922Z,359.90
2022-12-20T03:18:14.092Z,365.88
2022-12-20T03:20:44.021Z,382.58
2022-12-20T03:23:12.575Z,371.70
2022-12-20T03:25:41.190Z,380.20
2022-12-20T03:28:09.703Z,358.52
2022-12-20T03:30:38.335Z,357.38
2022-12-20T03:33:06.936Z,397.35
2022-12-20T03:35:36.811Z,365.52
2022-12-20T03:38:05.414Z,366.80
2022-12-20T03:40:34.129Z,353.55
2022-12-20T03:43:02.621Z,367.25
2022-12-20T03:45:31.124Z,410.27
2022-12-20T03:47:59.611Z,343.35
2022-12-20T03:50:28.066Z,371.08
2022-12-20T03:52:58.017Z,361.67
2022-12-20T03:55:26.498Z,352.90
2022-12-20T03:57:54.995Z,363.52
2022-12-20T04:00:23.749Z,345.45
2022-12-20T04:02:52.532Z,365.83
2022-12-20T04:05:21.417Z,362.48
2022-12-20T04:07:49.982Z,346.38
2022-12-20T04:10:19.973Z,353.55
2022-12-20T04:12:48.388Z,342.73
2022-12-20T04:15:16.940Z,348.30
2022-12-20T04:17:45.466Z,358.75
2022-12-20T04:20:22.733Z,350.10
2022-12-20T04:22:52.754Z,356.40
2022-12-20T04:25:23.371Z,366.73
2022-12-20T04:27:51.865Z,368.75
2022-12-20T04:30:20.476Z,357.15
2022-12-20T04:32:48.940Z,364.40
2022-12-20T04:35:17.592Z,344.85
2022-12-20T04:37:46.034Z,397.50
2022-12-20T04:40:14.895Z,485.60
2022-12-20T04:42:44.788Z,363.52
2022-12-20T04:45:13.625Z,377.92
2022-12-20T04:47:42.200Z,378.58
2022-12-20T04:50:11.372Z,347.33
2022-12-20T04:52:57.591Z,377.30
2022-12-20T04:55:26.060Z,370.83
2022-12-20T04:57:55.959Z,378.42
2022-12-20T05:00:24.639Z,384.85
2022-12-20T05:02:53.260Z,364.65
2022-12-20T05:05:21.960Z,367.95
2022-12-20T05:07:50.663Z,361.25
2022-12-20T05:10:19.241Z,365.98
2022-12-20T05:12:47.769Z,381.95
2022-12-20T05:15:17.724Z,362.02
2022-12-20T05:17:46.395Z,372.83
2022-12-20T05:20:15.543Z,364.25
2022-12-20T05:23:01.457Z,364.27
2022-12-20T05:25:47.821Z,363.17
2022-12-20T05:28:16.314Z,349.27
2022-12-20T05:30:46.103Z,344.77
2022-12-20T05:33:14.577Z,433.67
2022-12-20T05:35:42.966Z,362.88
2022-12-20T05:38:11.590Z,371.15
2022-12-20T05:40:41.309Z,350.38
2022-12-20T05:43:09.832Z,364.88
2022-12-20T05:45:38.323Z,354.23
2022-12-20T05:48:08.533Z,350.75
2022-12-20T05:50:36.964Z,363.95
2022-12-20T05:53:11.348Z,364.65
2022-12-20T05:55:43.315Z,375.85
2022-12-20T05:58:13.657Z,369.50
2022-12-20T06:00:43.134Z,367.70
2022-12-20T06:03:15.288Z,364.95
2022-12-20T06:05:45.150Z,394.50
2022-12-20T06:08:14.135Z,372.13
2022-12-20T06:10:43.421Z,368.67
2022-12-20T06:13:12.535Z,366.77
2022-12-20T06:15:41.158Z,356.60
2022-12-20T06:18:09.806Z,348.90
2022-12-20T06:20:40.430Z,559.10
2022-12-20T06:23:09.866Z,362.33
2022-12-20T06:25:40.160Z,348.35
2022-12-20T06:28:08.748Z,360.13
2022-12-20T06:30:37.314Z,355.88
2022-12-20T06:33:06.270Z,349.15
2022-12-20T06:35:34.693Z,343.05
2022-12-20T06:38:04.590Z,463.88
2022-12-20T06:40:33.168Z,448.42
2022-12-20T06:43:01.505Z,353.10
2022-12-20T06:45:31.697Z,340.33
2022-12-20T06:48:02.016Z,360.38
2022-12-20T06:50:30.506Z,362.60
2022-12-20T06:52:58.878Z,370.40
2022-12-20T06:55:28.673Z,367.15
2022-12-20T06:57:58.080Z,334.48
2022-12-20T07:00:27.371Z,429.10
2022-12-20T07:02:56.048Z,404.98
2022-12-20T07:05:24.712Z,408.63
2022-12-20T07:07:55.188Z,371.85
2022-12-20T07:10:23.976Z,348.50
2022-12-20T07:12:54.019Z,345.85
2022-12-20T07:15:23.206Z,424.90
2022-12-20T07:17:51.720Z,369.10
2022-12-20T07:20:20.582Z,358.75
2022-12-20T07:22:51.517Z,413.45
2022-12-20T07:25:20.190Z,404.75
2022-12-20T07:27:49.855Z,415.23
2022-12-20T07:30:21.173Z,363.38
2022-12-20T07:32:49.685Z,352.73
2022-12-20T07:35:18.621Z,494.40
2022-12-20T07:37:47.101Z,387.83
2022-12-20T07:40:16.418Z,362.63
2022-12-20T07:42:48.803Z,367.77
2022-12-20T07:45:19.081Z,351.58
2022-12-20T07:47:49.414Z,382.35
2022-12-20T07:50:18.094Z,375.42
2022-12-20T07:52:56.968Z,340.02
2022-12-20T07:55:25.520Z,362.80
2022-12-20T07:57:57.527Z,362.85
2022-12-20T08:00:27.485Z,386.58
2022-12-20T08:02:59.376Z,420.13
2022-12-20T08:05:32.663Z,424.70
2022-12-20T08:08:01.944Z,385.27
2022-12-20T08:10:30.625Z,422.50
2022-12-20T08:13:00.053Z,457.70
2022-12-20T08:15:30.804Z,369.58
2022-12-20T08:17:59.288Z,445.88
2022-12-20T08:20:28.101Z,371.70
2022-12-20T08:22:56.771Z,362.77
2022-12-20T08:25:41.977Z,375.67
2022-12-20T08:28:14.113Z,376.35
2022-12-20T08:30:44.067Z,349.13
2022-12-20T08:33:12.741Z,367.55
2022-12-20T08:35:41.484Z,363.60
2022-12-20T08:38:10.231Z,469.20
2022-12-20T08:40:38.813Z,371.23
2022-12-20T08:43:10.341Z,335.80
2022-12-20T08:45:39.281Z,362.17
2022-12-20T08:48:09.314Z,343.45
2022-12-20T08:50:37.938Z,428.25
2022-12-20T08:53:06.556Z,445.90
2022-12-20T08:55:35.642Z,323.60
2022-12-20T08:58:04.673Z,396.80
2022-12-20T09:00:34.183Z,572.78
2022-12-20T09:03:03.414Z,335.85
2022-12-20T09:05:34.101Z,233.15
2022-12-20T09:08:03.185Z,223.38
2022-12-20T09:10:32.442Z,302.08
2022-12-20T09:13:02.319Z,300.75
2022-12-20T09:15:32.040Z,311.33
2022-12-20T09:18:01.935Z,321.42
2022-12-20T09:20:32.897Z,302.02
2022-12-20T09:23:02.655Z,318.95
2022-12-20T09:26:03.892Z,381.65
2022-12-20T09:28:24.468Z,271.90
2022-12-20T09:31:02.223Z,299.45
2022-12-20T09:33:32.287Z,438.63
2022-12-20T09:36:03.164Z,325.75
2022-12-20T09:38:33.315Z,294.17
2022-12-20T09:41:05.530Z,272.88
2022-12-20T09:43:35.081Z,298.27
2022-12-20T09:46:05.172Z,314.75
2022-12-20T09:48:36.632Z,311.98
2022-12-20T09:51:16.149Z,304.40
2022-12-20T09:53:53.249Z,330.27
2022-12-20T09:56:26.428Z,312.50
2022-12-20T09:59:04.342Z,535.45
2022-12-20T10:01:39.692Z,257.88
2022-12-20T10:04:13.840Z,259.70
2022-12-20T10:06:51.366Z,272.13
2022-12-20T10:09:38.277Z,260.15
2022-12-20T10:12:19.019Z,199.80
2022-12-20T10:15:03.201Z,214.90
2022-12-20T10:17:42.518Z,222.00
2022-12-20T10:20:33.253Z,260.48
2022-12-20T10:23:08.835Z,234.68
2022-12-20T10:25:37.393Z,286.00
2022-12-20T10:28:11.506Z,337.00
2022-12-20T10:30:40.096Z,196.10
2022-12-20T10:33:15.549Z,250.73
2022-12-20T10:35:44.385Z,246.15
2022-12-20T10:38:18.820Z,265.75
2022-12-20T10:43:43.717Z,191.52
2022-12-20T10:46:12.758Z,247.20
2022-12-20T10:48:42.771Z,360.10
2022-12-20T10:51:31.079Z,216.38
2022-12-20T10:54:02.103Z,303.63
2022-12-20T10:56:32.536Z,393.67
2022-12-20T10:59:02.828Z,272.70
2022-12-20T11:01:32.562Z,240.90
2022-12-20T11:04:03.420Z,325.15
2022-12-20T11:06:43.036Z,305.20
2022-12-20T11:09:31.190Z,308.55
2022-12-20T11:12:04.903Z,233.65
2022-12-20T11:14:39.273Z,333.52
2022-12-20T11:17:22.739Z,276.40
2022-12-20T11:20:13.939Z,276.38
2022-12-20T11:22:51.298Z,256.60
2022-12-20T11:25:40.620Z,266.02
2022-12-20T11:28:42.220Z,196.25
2022-12-20T11:31:21.416Z,223.90
2022-12-20T11:34:10.262Z,258.13
2022-12-20T11:36:53.100Z,191.85
2022-12-20T11:39:32.081Z,190.40
2022-12-20T11:42:07.743Z,203.60
2022-12-20T11:45:03.467Z,299.52
2022-12-20T11:47:51.978Z,230.43
2022-12-20T11:50:45.299Z,278.42
2022-12-20T11:53:23.363Z,179.00
2022-12-20T11:55:55.405Z,238.85
2022-12-20T11:58:32.745Z,207.82
2022-12-20T12:01:13.340Z,204.00
2022-12-20T12:03:52.170Z,220.50
2022-12-20T12:06:25.492Z,188.88
2022-12-20T12:09:00.379Z,215.38
2022-12-20T12:14:37.123Z,197.52
2022-12-20T12:17:11.971Z,189.48
2022-12-20T12:19:46.822Z,265.15
2022-12-20T12:22:26.104Z,379.17
2022-12-20T12:24:59.264Z,380.40
2022-12-20T12:27:30.741Z,193.07
2022-12-20T12:30:18.956Z,238.68
2022-12-20T12:33:38.664Z,234.00
2022-12-20T12:36:37.778Z,304.27
2022-12-20T13:11:08.945Z,220.52
2022-12-20T13:13:37.502Z,172.75
2022-12-20T13:17:09.369Z,168.43
2022-12-20T13:19:31.347Z,240.52
2022-12-20T13:22:00.537Z,181.25
2022-12-20T13:24:58.006Z,215.60
2022-12-20T13:27:52.953Z,171.77
2022-12-20T13:30:29.482Z,173.82
2022-12-20T13:33:26.180Z,182.13
2022-12-20T13:39:34.019Z,211.85
2022-12-20T13:42:34.149Z,261.55
2022-12-20T13:45:11.899Z,230.07
2022-12-20T13:47:51.269Z,264.08
2022-12-20T13:50:43.775Z,220.45
2022-12-20T13:53:35.238Z,172.07
2022-12-20T13:56:38.164Z,228.82
2022-12-20T13:59:18.542Z,217.25
2022-12-20T14:02:00.385Z,254.23
2022-12-20T14:04:42.482Z,220.05
2022-12-20T14:07:23.190Z,233.82
2022-12-20T14:09:59.774Z,183.15
2022-12-20T14:12:36.780Z,384.05
2022-12-20T14:15:29.949Z,224.10
2022-12-20T14:18:01.264Z,274.58
2022-12-20T14:20:46.109Z,383.73
2022-12-20T14:23:24.313Z,171.40
2022-12-20T14:31:26.415Z,261.13
2022-12-20T14:34:04.405Z,225.43
2022-12-20T14:36:33.829Z,204.27
2022-12-20T14:39:27.319Z,170.43
2022-12-20T14:42:04.351Z,187.30
2022-12-20T14:44:33.659Z,287.60
2022-12-20T14:47:06.898Z,193.55
2022-12-20T14:49:37.036Z,209.55
2022-12-20T14:52:14.831Z,188.32
2022-12-20T15:00:56.500Z,228.88
2022-12-20T15:04:33.190Z,341.30
2022-12-20T15:09:36.482Z,169.43
2022-12-20T15:12:10.511Z,199.77
2022-12-20T15:14:49.111Z,199.98
2022-12-20T15:17:21.307Z,187.75
2022-12-20T15:19:53.913Z,206.55
2022-12-20T15:22:27.820Z,245.05
2022-12-20T15:25:17.579Z,196.32
2022-12-20T15:27:49.971Z,183.05
2022-12-20T15:30:25.397Z,207.70
2022-12-20T15:33:01.662Z,328.77
2022-12-20T15:35:40.819Z,180.90
2022-12-20T15:38:16.901Z,376.35
2022-12-20T15:40:47.135Z,194.98
2022-12-20T15:43:21.361Z,282.08
2022-12-20T15:45:54.122Z,236.85
2022-12-20T15:48:24.712Z,269.23
2022-12-20T15:50:56.046Z,185.38
2022-12-20T15:53:30.184Z,237.40
2022-12-20T15:55:58.903Z,245.60
2022-12-20T15:58:28.081Z,250.00
2022-12-20T16:00:59.413Z,242.18
2022-12-20T16:03:34.385Z,456.05
2022-12-20T16:06:03.395Z,235.73
2022-12-20T16:08:33.746Z,237.93
2022-12-20T16:11:02.217Z,285.83
2022-12-20T16:13:30.789Z,229.80
2022-12-20T16:16:00.364Z,257.33
2022-12-20T16:18:34.508Z,294.73
2022-12-20T16:21:03.356Z,184.88
2022-12-20T16:23:33.340Z,208.77
2022-12-20T16:26:02.224Z,251.23
2022-12-20T16:28:31.124Z,228.20
2022-12-20T16:30:59.826Z,419.73
2022-12-20T16:33:29.375Z,160.30
2022-12-20T16:35:57.877Z,255.85
2022-12-20T16:38:26.406Z,367.83
2022-12-20T16:40:56.217Z,188.00
2022-12-20T16:43:25.677Z,185.15
2022-12-20T16:45:54.243Z,191.95
2022-12-20T16:48:25.816Z,175.90
2022-12-20T16:50:54.536Z,224.90
2022-12-20T16:53:23.024Z,188.85
2022-12-20T16:55:51.666Z,200.77
2022-12-20T16:58:38.637Z,251.05
2022-12-20T17:01:17.938Z,268.27
2022-12-20T17:03:47.866Z,213.48
2022-12-20T17:06:48.351Z,195.13
2022-12-20T17:12:20.895Z,167.23
2022-12-20T17:14:54.094Z,193.15
2022-12-20T17:17:25.083Z,188.30
2022-12-20T17:19:55.075Z,205.38
2022-12-20T17:22:27.497Z,328.02
2022-12-20T17:24:57.218Z,247.52
2022-12-20T17:27:25.837Z,303.75
2022-12-20T17:29:55.734Z,232.20
2022-12-20T17:32:26.243Z,186.65
2022-12-20T17:34:55.228Z,305.05
2022-12-20T17:37:24.807Z,243.75
2022-12-20T17:39:53.192Z,172.10
2022-12-20T17:42:28.829Z,359.33
2022-12-20T17:45:01.230Z,182.02
2022-12-20T17:47:29.841Z,204.10
2022-12-20T17:49:58.932Z,273.85
2022-12-20T17:52:27.668Z,327.05
2022-12-20T17:54:56.192Z,198.35
2022-12-20T17:57:25.115Z,205.02
2022-12-20T17:59:53.629Z,257.38
2022-12-20T18:02:25.344Z,216.50
2022-12-20T18:04:54.157Z,222.13
2022-12-20T18:07:22.662Z,236.52
2022-12-20T18:09:51.833Z,219.55
2022-12-20T18:12:20.829Z,213.23
2022-12-20T18:14:50.012Z,273.02
2022-12-20T18:17:18.649Z,233.85
2022-12-20T18:19:52.122Z,282.63
2022-12-20T18:22:24.755Z,279.67
2022-12-20T18:24:53.261Z,299.25
2022-12-20T18:27:27.003Z,282.40
2022-12-20T18:29:59.131Z,221.80
2022-12-20T18:32:27.618Z,295.27
2022-12-20T18:34:57.989Z,259.17
2022-12-20T18:37:26.843Z,274.70
2022-12-20T18:39:56.967Z,460.50
2022-12-20T18:42:25.515Z,262.67
2022-12-20T18:44:54.004Z,317.38
2022-12-20T18:47:22.505Z,270.70
2022-12-20T18:49:51.104Z,314.35
2022-12-20T18:52:21.123Z,281.25
2022-12-20T18:54:49.647Z,309.17
2022-12-20T18:57:18.139Z,294.90
2022-12-20T18:59:46.757Z,289.95
2022-12-20T19:02:15.386Z,264.05
2022-12-20T19:04:44.790Z,230.85
2022-12-20T19:07:13.267Z,240.23
2022-12-20T19:09:43.427Z,250.40
2022-12-20T19:12:12.772Z,295.00
2022-12-20T19:14:41.288Z,280.77
2022-12-20T19:17:09.831Z,263.90
2022-12-20T19:19:38.598Z,257.45
2022-12-20T19:22:07.219Z,281.02
2022-12-20T19:24:36.135Z,433.27
2022-12-20T19:27:09.359Z,257.67
2022-12-20T19:29:37.914Z,276.85
2022-12-20T19:32:06.826Z,275.92
2022-12-20T19:34:35.348Z,288.15
2022-12-20T19:37:04.397Z,501.83
2022-12-20T19:39:32.956Z,271.50
2022-12-20T19:42:23.436Z,278.10
2022-12-20T19:44:51.661Z,336.05
2022-12-20T19:47:20.185Z,267.95
2022-12-20T19:49:48.806Z,283.48
2022-12-20T19:52:22.041Z,269.80
2022-12-20T19:54:55.441Z,288.77
2022-12-20T19:57:23.811Z,267.83
2022-12-20T19:59:56.133Z,280.40
2022-12-20T20:02:25.392Z,303.83
2022-12-20T20:04:54.187Z,281.27
2022-12-20T20:07:22.960Z,282.10
2022-12-20T20:09:51.659Z,285.42
2022-12-20T20:12:20.567Z,262.90
2022-12-20T20:14:49.184Z,260.08
2022-12-20T20:17:19.122Z,246.02
2022-12-20T20:19:48.824Z,260.23
2022-12-20T20:22:22.682Z,276.05
2022-12-20T20:24:51.705Z,243.23
2022-12-20T20:27:20.197Z,249.80
2022-12-20T20:29:50.600Z,275.55
2022-12-20T20:32:20.465Z,270.25
2022-12-20T20:34:48.967Z,281.02
2022-12-20T20:37:17.811Z,292.20
2022-12-20T20:39:46.601Z,284.10
2022-12-20T20:42:18.416Z,290.73
2022-12-20T20:44:51.462Z,287.98
2022-12-20T20:47:21.892Z,278.05
2022-12-20T20:49:52.777Z,285.33
2022-12-20T20:52:21.396Z,301.77
2022-12-20T20:54:49.964Z,298.90
2022-12-20T20:57:18.627Z,302.30
2022-12-20T20:59:47.052Z,300.92
2022-12-20T21:02:15.785Z,306.23
2022-12-20T21:05:07.168Z,300.27
2022-12-20T21:07:34.202Z,349.23
2022-12-20T21:10:02.814Z,306.88
2022-12-20T21:12:31.354Z,319.80
2022-12-20T21:15:21.865Z,299.85
2022-12-20T21:17:50.479Z,302.60
2022-12-20T21:20:25.714Z,323.27
2022-12-20T21:22:55.225Z,314.90
2022-12-20T21:25:23.717Z,440.48
2022-12-20T21:27:55.108Z,324.17
2022-12-20T21:30:23.612Z,347.17
2022-12-20T21:32:52.174Z,300.95
2022-12-20T21:35:22.795Z,325.70
2022-12-20T21:37:53.762Z,288.27
2022-12-20T21:40:22.452Z,334.60
2022-12-20T21:42:50.878Z,342.00
2022-12-20T21:45:19.300Z,326.42
2022-12-20T21:47:47.941Z,353.52
2022-12-20T21:50:16.560Z,343.80
2022-12-20T21:52:46.365Z,345.67
2022-12-20T21:55:15.017Z,349.30
2022-12-20T21:57:44.091Z,344.80
2022-12-20T22:00:13.595Z,347.33
2022-12-20T22:02:42.128Z,326.35
2022-12-20T22:05:11.232Z,333.88
2022-12-20T22:07:39.650Z,316.08
2022-12-20T22:10:10.792Z,326.63
2022-12-20T22:12:51.853Z,353.63
2022-12-20T22:15:20.438Z,327.60
2022-12-20T22:17:52.430Z,333.45
2022-12-20T22:20:22.326Z,329.85
2022-12-20T22:22:50.804Z,320.05
2022-12-20T22:25:20.740Z,315.50
2022-12-20T22:27:50.537Z,309.00
2022-12-20T22:30:20.106Z,309.92
2022-12-20T22:32:48.489Z,306.88
2022-12-20T22:35:23.302Z,317.13
2022-12-20T22:37:52.282Z,304.80
2022-12-20T22:40:24.763Z,308.83
2022-12-20T22:42:54.878Z,293.38
2022-12-20T22:45:31.884Z,296.42
2022-12-20T22:48:00.426Z,291.45
2022-12-20T22:50:42.621Z,311.08
2022-12-20T22:53:12.935Z,296.98
2022-12-20T22:55:45.329Z,303.55
2022-12-20T22:58:37.858Z,307.45
2022-12-20T23:01:22.335Z,297.77
2022-12-20T23:03:52.874Z,304.52
2022-12-20T23:06:30.395Z,368.73
2022-12-20T23:09:21.016Z,329.23
2022-12-20T23:12:08.726Z,315.40
2022-12-20T23:15:00.242Z,293.73
2022-12-20T23:17:33.292Z,321.92
2022-12-20T23:20:29.795Z,302.63
2022-12-20T23:22:58.193Z,308.73
2022-12-20T23:25:26.774Z,286.83
2022-12-20T23:27:56.844Z,325.10
2022-12-20T23:30:25.913Z,312.10
2022-12-20T23:32:56.237Z,293.48
2022-12-20T23:35:25.818Z,270.08
2022-12-20T23:37:55.914Z,296.38
2022-12-20T23:40:24.386Z,299.88
2022-12-20T23:42:56.170Z,288.13
2022-12-20T23:45:24.619Z,292.65
2022-12-20T23:47:53.103Z,293.70
2022-12-20T23:50:21.537Z,293.58
2022-12-20T23:52:50.033Z,315.42
2022-12-20T23:55:18.607Z,294.67
2022-12-20T23:57:47.059Z,280.05
